sensor_id;sensor_type;location;lat;lon;timestamp;temperature;humidity
32470;DHT22;18925;48.356;10.864;2022-09-09T00:00:16;13.10;99.90
32470;DHT22;18925;48.356;10.864;2022-09-09T00:00:49;13.10;99.90
32470;DHT22;18925;48.356;10.864;2022-09-09T00:01:37;13.10;99.90
32470;DHT22;18925;48.356;10.864;2022-09-09T00:02:20;13.00;99.90
32470;DHT22;18925;48.356;10.864;2022-09-09T00:03:04;13.00;99.90
32470;DHT22;18925;48.356;10.864;2022-09-09T00:03:43;13.00;99.90
32470;DHT22;18925;48.356;10.864;2022-09-09T00:04:19;13.00;99.90
32470;DHT22;18925;48.356;10.864;2022-09-09T00:04:58;13.00;99.90
32470;DHT22;18925;48.356;10.864;2022-09-09T00:05:38;13.00;99.90
32470;DHT22;18925;48.356;10.864;2022-09-09T00:06:21;13.00;99.90
32470;DHT22;18925;48.356;10.864;2022-09-09T00:07:43;13.10;99.90
32470;DHT22;18925;48.356;10.864;2022-09-09T00:08:19;13.00;99.90
32470;DHT22;18925;48.356;10.864;2022-09-09T00:09:46;13.00;99.90
32470;DHT22;18925;48.356;10.864;2022-09-09T00:10:58;13.00;99.90
32470;DHT22;18925;48.356;10.864;2022-09-09T00:11:49;13.00;99.90
32470;DHT22;18925;48.356;10.864;2022-09-09T00:13:46;12.90;99.90
32470;DHT22;18925;48.356;10.864;2022-09-09T00:16:44;13.00;99.90
32470;DHT22;18925;48.356;10.864;2022-09-09T00:17:23;13.00;99.90
32470;DHT22;18925;48.356;10.864;2022-09-09T00:17:58;13.00;99.90
32470;DHT22;18925;48.356;10.864;2022-09-09T00:18:33;13.00;99.90
32470;DHT22;18925;48.356;10.864;2022-09-09T00:19:08;12.90;99.90
32470;DHT22;18925;48.356;10.864;2022-09-09T00:19:49;13.00;99.90
32470;DHT22;18925;48.356;10.864;2022-09-09T00:21:13;13.00;99.90
32470;DHT22;18925;48.356;10.864;2022-09-09T00:22:08;13.00;99.90
32470;DHT22;18925;48.356;10.864;2022-09-09T00:22:40;13.00;99.90
32470;DHT22;18925;48.356;10.864;2022-09-09T00:23:45;13.00;99.90
32470;DHT22;18925;48.356;10.864;2022-09-09T00:24:27;13.00;99.90
32470;DHT22;18925;48.356;10.864;2022-09-09T00:25:21;12.90;99.90
32470;DHT22;18925;48.356;10.864;2022-09-09T00:27:06;13.00;99.90
32470;DHT22;18925;48.356;10.864;2022-09-09T00:27:45;13.00;99.90
32470;DHT22;18925;48.356;10.864;2022-09-09T00:28:20;13.00;99.90
32470;DHT22;18925;48.356;10.864;2022-09-09T00:29:44;13.00;99.90
32470;DHT22;18925;48.356;10.864;2022-09-09T00:30:30;13.00;99.90
32470;DHT22;18925;48.356;10.864;2022-09-09T00:31:08;13.00;99.90
32470;DHT22;18925;48.356;10.864;2022-09-09T00:31:40;12.90;99.90
32470;DHT22;18925;48.356;10.864;2022-09-09T00:32:13;12.90;99.90
32470;DHT22;18925;48.356;10.864;2022-09-09T00:32:44;12.90;99.90
32470;DHT22;18925;48.356;10.864;2022-09-09T00:33:15;13.00;99.90
32470;DHT22;18925;48.356;10.864;2022-09-09T00:33:48;12.90;99.90
32470;DHT22;18925;48.356;10.864;2022-09-09T00:34:21;12.90;99.90
32470;DHT22;18925;48.356;10.864;2022-09-09T00:35:00;12.90;99.90
32470;DHT22;18925;48.356;10.864;2022-09-09T00:35:38;13.00;99.90
32470;DHT22;18925;48.356;10.864;2022-09-09T00:36:13;12.90;99.90
32470;DHT22;18925;48.356;10.864;2022-09-09T00:36:46;12.90;99.90
32470;DHT22;18925;48.356;10.864;2022-09-09T00:37:19;12.90;99.90
32470;DHT22;18925;48.356;10.864;2022-09-09T00:37:53;12.90;99.90
32470;DHT22;18925;48.356;10.864;2022-09-09T00:38:35;12.90;99.90
32470;DHT22;18925;48.356;10.864;2022-09-09T00:39:10;12.90;99.90
32470;DHT22;18925;48.356;10.864;2022-09-09T00:39:44;12.90;99.90
32470;DHT22;18925;48.356;10.864;2022-09-09T00:40:30;12.90;99.90
32470;DHT22;18925;48.356;10.864;2022-09-09T00:41:46;12.90;99.90
32470;DHT22;18925;48.356;10.864;2022-09-09T00:42:24;12.90;99.90
32470;DHT22;18925;48.356;10.864;2022-09-09T00:43:32;12.90;99.90
32470;DHT22;18925;48.356;10.864;2022-09-09T00:45:18;13.00;99.90
32470;DHT22;18925;48.356;10.864;2022-09-09T00:46:00;13.10;99.90
32470;DHT22;18925;48.356;10.864;2022-09-09T00:47:50;13.10;99.90
32470;DHT22;18925;48.356;10.864;2022-09-09T00:48:21;13.10;99.90
32470;DHT22;18925;48.356;10.864;2022-09-09T00:48:57;13.10;99.90
32470;DHT22;18925;48.356;10.864;2022-09-09T00:51:15;13.00;99.90
32470;DHT22;18925;48.356;10.864;2022-09-09T00:54:28;13.00;99.90
32470;DHT22;18925;48.356;10.864;2022-09-09T00:56:44;13.00;99.90
32470;DHT22;18925;48.356;10.864;2022-09-09T00:57:50;13.00;99.90
32470;DHT22;18925;48.356;10.864;2022-09-09T00:58:22;13.00;99.90
32470;DHT22;18925;48.356;10.864;2022-09-09T00:58:59;13.00;99.90
32470;DHT22;18925;48.356;10.864;2022-09-09T01:00:20;13.00;99.90
32470;DHT22;18925;48.356;10.864;2022-09-09T01:00:52;13.00;99.90
32470;DHT22;18925;48.356;10.864;2022-09-09T01:01:26;13.00;99.90
32470;DHT22;18925;48.356;10.864;2022-09-09T01:01:57;13.00;99.90
32470;DHT22;18925;48.356;10.864;2022-09-09T01:02:30;13.00;99.90
32470;DHT22;18925;48.356;10.864;2022-09-09T01:03:55;13.10;99.90
32470;DHT22;18925;48.356;10.864;2022-09-09T01:04:29;13.10;99.90
32470;DHT22;18925;48.356;10.864;2022-09-09T01:05:05;13.10;99.90
32470;DHT22;18925;48.356;10.864;2022-09-09T01:06:59;13.20;99.90
32470;DHT22;18925;48.356;10.864;2022-09-09T01:07:32;13.20;99.90
32470;DHT22;18925;48.356;10.864;2022-09-09T01:08:03;13.20;99.90
32470;DHT22;18925;48.356;10.864;2022-09-09T01:08:39;13.10;99.90
32470;DHT22;18925;48.356;10.864;2022-09-09T01:09:58;13.10;99.90
32470;DHT22;18925;48.356;10.864;2022-09-09T01:10:34;13.10;99.90
32470;DHT22;18925;48.356;10.864;2022-09-09T01:11:07;13.10;99.90
32470;DHT22;18925;48.356;10.864;2022-09-09T01:12:23;13.10;99.90
32470;DHT22;18925;48.356;10.864;2022-09-09T01:12:55;13.10;99.90
32470;DHT22;18925;48.356;10.864;2022-09-09T01:13:30;13.10;99.90
32470;DHT22;18925;48.356;10.864;2022-09-09T01:14:10;13.10;99.90
32470;DHT22;18925;48.356;10.864;2022-09-09T01:14:43;13.10;99.90
32470;DHT22;18925;48.356;10.864;2022-09-09T01:15:17;13.10;99.90
32470;DHT22;18925;48.356;10.864;2022-09-09T01:15:50;13.10;99.90
32470;DHT22;18925;48.356;10.864;2022-09-09T01:16:23;13.10;99.90
32470;DHT22;18925;48.356;10.864;2022-09-09T01:16:54;13.10;99.90
32470;DHT22;18925;48.356;10.864;2022-09-09T01:17:28;13.10;99.90
32470;DHT22;18925;48.356;10.864;2022-09-09T01:18:10;13.10;99.90
32470;DHT22;18925;48.356;10.864;2022-09-09T01:18:46;13.10;99.90
32470;DHT22;18925;48.356;10.864;2022-09-09T01:19:20;13.10;99.90
32470;DHT22;18925;48.356;10.864;2022-09-09T01:20:10;13.00;99.90
32470;DHT22;18925;48.356;10.864;2022-09-09T01:22:29;13.00;99.90
32470;DHT22;18925;48.356;10.864;2022-09-09T01:23:48;13.00;99.90
32470;DHT22;18925;48.356;10.864;2022-09-09T01:24:27;13.00;99.90
32470;DHT22;18925;48.356;10.864;2022-09-09T01:25:12;13.00;99.90
32470;DHT22;18925;48.356;10.864;2022-09-09T01:26:04;13.00;99.90
32470;DHT22;18925;48.356;10.864;2022-09-09T01:26:42;13.00;99.90
32470;DHT22;18925;48.356;10.864;2022-09-09T01:27:13;13.00;99.90
32470;DHT22;18925;48.356;10.864;2022-09-09T01:27:44;13.00;99.90
32470;DHT22;18925;48.356;10.864;2022-09-09T01:28:17;13.00;99.90
32470;DHT22;18925;48.356;10.864;2022-09-09T01:28:50;13.00;99.90
32470;DHT22;18925;48.356;10.864;2022-09-09T01:29:23;13.10;99.90
32470;DHT22;18925;48.356;10.864;2022-09-09T01:29:53;13.10;99.90
32470;DHT22;18925;48.356;10.864;2022-09-09T01:30:25;13.10;99.90
32470;DHT22;18925;48.356;10.864;2022-09-09T01:30:56;13.10;99.90
32470;DHT22;18925;48.356;10.864;2022-09-09T01:32:00;13.20;99.90
32470;DHT22;18925;48.356;10.864;2022-09-09T01:33:09;13.20;99.90
32470;DHT22;18925;48.356;10.864;2022-09-09T01:33:43;13.20;99.90
32470;DHT22;18925;48.356;10.864;2022-09-09T01:34:14;13.20;99.90
32470;DHT22;18925;48.356;10.864;2022-09-09T01:34:45;13.20;99.90
32470;DHT22;18925;48.356;10.864;2022-09-09T01:35:54;13.20;99.90
32470;DHT22;18925;48.356;10.864;2022-09-09T01:37:03;13.20;99.90
32470;DHT22;18925;48.356;10.864;2022-09-09T01:37:36;13.20;99.90
32470;DHT22;18925;48.356;10.864;2022-09-09T01:38:07;13.20;99.90
32470;DHT22;18925;48.356;10.864;2022-09-09T01:38:38;13.20;99.90
32470;DHT22;18925;48.356;10.864;2022-09-09T01:39:08;13.20;99.90
32470;DHT22;18925;48.356;10.864;2022-09-09T01:39:40;13.20;99.90
32470;DHT22;18925;48.356;10.864;2022-09-09T01:40:11;13.20;99.90
32470;DHT22;18925;48.356;10.864;2022-09-09T01:40:42;13.20;99.90
32470;DHT22;18925;48.356;10.864;2022-09-09T01:41:13;13.20;99.90
32470;DHT22;18925;48.356;10.864;2022-09-09T01:41:43;13.20;99.90
32470;DHT22;18925;48.356;10.864;2022-09-09T01:42:14;13.20;99.90
32470;DHT22;18925;48.356;10.864;2022-09-09T01:42:46;13.20;99.90
32470;DHT22;18925;48.356;10.864;2022-09-09T01:43:16;13.20;99.90
32470;DHT22;18925;48.356;10.864;2022-09-09T01:43:47;13.20;99.90
32470;DHT22;18925;48.356;10.864;2022-09-09T01:44:18;13.20;99.90
32470;DHT22;18925;48.356;10.864;2022-09-09T01:44:49;13.10;99.90
32470;DHT22;18925;48.356;10.864;2022-09-09T01:45:20;13.10;99.90
32470;DHT22;18925;48.356;10.864;2022-09-09T01:45:52;13.10;99.90
32470;DHT22;18925;48.356;10.864;2022-09-09T01:46:24;13.10;99.90
32470;DHT22;18925;48.356;10.864;2022-09-09T01:46:55;13.10;99.90
32470;DHT22;18925;48.356;10.864;2022-09-09T01:47:25;13.00;99.90
32470;DHT22;18925;48.356;10.864;2022-09-09T01:47:56;13.00;99.90
32470;DHT22;18925;48.356;10.864;2022-09-09T01:48:27;13.00;99.90
32470;DHT22;18925;48.356;10.864;2022-09-09T01:48:58;13.10;99.90
32470;DHT22;18925;48.356;10.864;2022-09-09T01:49:30;13.00;99.90
32470;DHT22;18925;48.356;10.864;2022-09-09T01:50:01;13.00;99.90
32470;DHT22;18925;48.356;10.864;2022-09-09T01:50:33;13.00;99.90
32470;DHT22;18925;48.356;10.864;2022-09-09T01:51:03;13.00;99.90
32470;DHT22;18925;48.356;10.864;2022-09-09T01:51:34;13.00;99.90
32470;DHT22;18925;48.356;10.864;2022-09-09T01:52:05;13.00;99.90
32470;DHT22;18925;48.356;10.864;2022-09-09T01:52:36;13.00;99.90
32470;DHT22;18925;48.356;10.864;2022-09-09T01:53:06;13.00;99.90
32470;DHT22;18925;48.356;10.864;2022-09-09T01:53:38;13.00;99.90
32470;DHT22;18925;48.356;10.864;2022-09-09T01:54:10;13.00;99.90
32470;DHT22;18925;48.356;10.864;2022-09-09T01:54:40;13.00;99.90
32470;DHT22;18925;48.356;10.864;2022-09-09T01:55:11;12.90;99.90
32470;DHT22;18925;48.356;10.864;2022-09-09T01:55:44;12.90;99.90
32470;DHT22;18925;48.356;10.864;2022-09-09T01:57:18;12.90;99.90
32470;DHT22;18925;48.356;10.864;2022-09-09T01:58:25;12.90;99.90
32470;DHT22;18925;48.356;10.864;2022-09-09T01:59:07;12.90;99.90
32470;DHT22;18925;48.356;10.864;2022-09-09T01:59:51;12.90;99.90
32470;DHT22;18925;48.356;10.864;2022-09-09T02:00:23;12.90;99.90
32470;DHT22;18925;48.356;10.864;2022-09-09T02:01:02;12.90;99.90
32470;DHT22;18925;48.356;10.864;2022-09-09T02:02:23;12.90;99.90
32470;DHT22;18925;48.356;10.864;2022-09-09T02:03:47;12.80;99.90
32470;DHT22;18925;48.356;10.864;2022-09-09T02:05:27;12.80;99.90
32470;DHT22;18925;48.356;10.864;2022-09-09T02:06:50;12.80;99.90
32470;DHT22;18925;48.356;10.864;2022-09-09T02:09:03;12.80;99.90
32470;DHT22;18925;48.356;10.864;2022-09-09T02:09:34;12.90;99.90
32470;DHT22;18925;48.356;10.864;2022-09-09T02:11:31;12.80;99.90
32470;DHT22;18925;48.356;10.864;2022-09-09T02:12:05;12.90;99.90
32470;DHT22;18925;48.356;10.864;2022-09-09T02:12:39;12.80;99.90
32470;DHT22;18925;48.356;10.864;2022-09-09T02:13:11;12.80;99.90
32470;DHT22;18925;48.356;10.864;2022-09-09T02:13:44;12.80;99.90
32470;DHT22;18925;48.356;10.864;2022-09-09T02:14:19;12.80;99.90
32470;DHT22;18925;48.356;10.864;2022-09-09T02:14:55;12.80;99.90
32470;DHT22;18925;48.356;10.864;2022-09-09T02:15:28;12.80;99.90
32470;DHT22;18925;48.356;10.864;2022-09-09T02:16:01;12.80;99.90
32470;DHT22;18925;48.356;10.864;2022-09-09T02:16:37;12.70;99.90
32470;DHT22;18925;48.356;10.864;2022-09-09T02:17:09;12.80;99.90
32470;DHT22;18925;48.356;10.864;2022-09-09T02:17:40;12.70;99.90
32470;DHT22;18925;48.356;10.864;2022-09-09T02:18:13;12.70;99.90
32470;DHT22;18925;48.356;10.864;2022-09-09T02:18:50;12.70;99.90
32470;DHT22;18925;48.356;10.864;2022-09-09T02:19:29;12.70;99.90
32470;DHT22;18925;48.356;10.864;2022-09-09T02:20:05;12.70;99.90
32470;DHT22;18925;48.356;10.864;2022-09-09T02:20:38;12.70;99.90
32470;DHT22;18925;48.356;10.864;2022-09-09T02:21:08;12.70;99.90
32470;DHT22;18925;48.356;10.864;2022-09-09T02:21:42;12.60;99.90
32470;DHT22;18925;48.356;10.864;2022-09-09T02:22:15;12.60;99.90
32470;DHT22;18925;48.356;10.864;2022-09-09T02:22:49;12.60;99.90
32470;DHT22;18925;48.356;10.864;2022-09-09T02:23:20;12.70;99.90
32470;DHT22;18925;48.356;10.864;2022-09-09T02:23:51;12.60;99.90
32470;DHT22;18925;48.356;10.864;2022-09-09T02:24:23;12.60;99.90
32470;DHT22;18925;48.356;10.864;2022-09-09T02:24:56;12.60;99.90
32470;DHT22;18925;48.356;10.864;2022-09-09T02:25:29;12.50;99.90
32470;DHT22;18925;48.356;10.864;2022-09-09T02:26:00;12.50;99.90
32470;DHT22;18925;48.356;10.864;2022-09-09T02:26:32;12.50;99.90
32470;DHT22;18925;48.356;10.864;2022-09-09T02:27:05;12.40;99.90
32470;DHT22;18925;48.356;10.864;2022-09-09T02:27:38;12.40;99.90
32470;DHT22;18925;48.356;10.864;2022-09-09T02:28:09;12.40;99.90
32470;DHT22;18925;48.356;10.864;2022-09-09T02:28:40;12.40;99.90
32470;DHT22;18925;48.356;10.864;2022-09-09T02:29:22;12.50;99.90
32470;DHT22;18925;48.356;10.864;2022-09-09T02:29:54;12.40;99.90
32470;DHT22;18925;48.356;10.864;2022-09-09T02:30:27;12.50;99.90
32470;DHT22;18925;48.356;10.864;2022-09-09T02:30:59;12.50;99.90
32470;DHT22;18925;48.356;10.864;2022-09-09T02:31:31;12.50;99.90
32470;DHT22;18925;48.356;10.864;2022-09-09T02:32:04;12.50;99.90
32470;DHT22;18925;48.356;10.864;2022-09-09T02:32:36;12.50;99.90
32470;DHT22;18925;48.356;10.864;2022-09-09T02:33:07;12.40;99.90
32470;DHT22;18925;48.356;10.864;2022-09-09T02:33:39;12.40;99.90
32470;DHT22;18925;48.356;10.864;2022-09-09T02:34:11;12.40;99.90
32470;DHT22;18925;48.356;10.864;2022-09-09T02:34:44;12.50;99.90
32470;DHT22;18925;48.356;10.864;2022-09-09T02:35:16;12.50;99.90
32470;DHT22;18925;48.356;10.864;2022-09-09T02:35:48;12.60;99.90
32470;DHT22;18925;48.356;10.864;2022-09-09T02:36:21;12.60;99.90
32470;DHT22;18925;48.356;10.864;2022-09-09T02:36:53;12.60;99.90
32470;DHT22;18925;48.356;10.864;2022-09-09T02:37:29;12.60;99.90
32470;DHT22;18925;48.356;10.864;2022-09-09T02:38:02;12.60;99.90
32470;DHT22;18925;48.356;10.864;2022-09-09T02:38:35;12.60;99.90
32470;DHT22;18925;48.356;10.864;2022-09-09T02:39:07;12.60;99.90
32470;DHT22;18925;48.356;10.864;2022-09-09T02:39:39;12.60;99.90
32470;DHT22;18925;48.356;10.864;2022-09-09T02:40:10;12.60;99.90
32470;DHT22;18925;48.356;10.864;2022-09-09T02:40:41;12.60;99.90
32470;DHT22;18925;48.356;10.864;2022-09-09T02:41:12;12.60;99.90
32470;DHT22;18925;48.356;10.864;2022-09-09T02:41:42;12.60;99.90
32470;DHT22;18925;48.356;10.864;2022-09-09T02:42:13;12.50;99.90
32470;DHT22;18925;48.356;10.864;2022-09-09T02:42:46;12.60;99.90
32470;DHT22;18925;48.356;10.864;2022-09-09T02:43:16;12.60;99.90
32470;DHT22;18925;48.356;10.864;2022-09-09T02:43:47;12.50;99.90
32470;DHT22;18925;48.356;10.864;2022-09-09T02:44:18;12.50;99.90
32470;DHT22;18925;48.356;10.864;2022-09-09T02:44:49;12.50;99.90
32470;DHT22;18925;48.356;10.864;2022-09-09T02:45:20;12.40;99.90
32470;DHT22;18925;48.356;10.864;2022-09-09T02:47:50;12.50;99.90
32470;DHT22;18925;48.356;10.864;2022-09-09T02:50:08;12.60;99.90
32470;DHT22;18925;48.356;10.864;2022-09-09T02:51:05;12.60;99.90
32470;DHT22;18925;48.356;10.864;2022-09-09T02:51:54;12.60;99.90
32470;DHT22;18925;48.356;10.864;2022-09-09T02:52:26;12.60;99.90
32470;DHT22;18925;48.356;10.864;2022-09-09T02:53:43;12.60;99.90
32470;DHT22;18925;48.356;10.864;2022-09-09T02:54:26;12.60;99.90
32470;DHT22;18925;48.356;10.864;2022-09-09T02:55:04;12.60;99.90
32470;DHT22;18925;48.356;10.864;2022-09-09T02:55:55;12.60;99.90
32470;DHT22;18925;48.356;10.864;2022-09-09T02:56:27;12.60;99.90
32470;DHT22;18925;48.356;10.864;2022-09-09T02:57:08;12.60;99.90
32470;DHT22;18925;48.356;10.864;2022-09-09T02:57:40;12.60;99.90
32470;DHT22;18925;48.356;10.864;2022-09-09T02:58:12;12.50;99.90
32470;DHT22;18925;48.356;10.864;2022-09-09T02:58:47;12.60;99.90
32470;DHT22;18925;48.356;10.864;2022-09-09T02:59:18;12.60;99.90
32470;DHT22;18925;48.356;10.864;2022-09-09T02:59:49;12.60;99.90
32470;DHT22;18925;48.356;10.864;2022-09-09T03:00:25;12.60;99.90
32470;DHT22;18925;48.356;10.864;2022-09-09T03:00:56;12.50;99.90
32470;DHT22;18925;48.356;10.864;2022-09-09T03:01:28;12.50;99.90
32470;DHT22;18925;48.356;10.864;2022-09-09T03:01:58;12.60;99.90
32470;DHT22;18925;48.356;10.864;2022-09-09T03:02:29;12.60;99.90
32470;DHT22;18925;48.356;10.864;2022-09-09T03:03:00;12.60;99.90
32470;DHT22;18925;48.356;10.864;2022-09-09T03:03:31;12.60;99.90
32470;DHT22;18925;48.356;10.864;2022-09-09T03:04:02;12.50;99.90
32470;DHT22;18925;48.356;10.864;2022-09-09T03:04:35;12.50;99.90
32470;DHT22;18925;48.356;10.864;2022-09-09T03:05:06;12.50;99.90
32470;DHT22;18925;48.356;10.864;2022-09-09T03:05:36;12.50;99.90
32470;DHT22;18925;48.356;10.864;2022-09-09T03:06:07;12.50;99.90
32470;DHT22;18925;48.356;10.864;2022-09-09T03:06:37;12.40;99.90
32470;DHT22;18925;48.356;10.864;2022-09-09T03:07:08;12.40;99.90
32470;DHT22;18925;48.356;10.864;2022-09-09T03:07:40;12.40;99.90
32470;DHT22;18925;48.356;10.864;2022-09-09T03:08:11;12.40;99.90
32470;DHT22;18925;48.356;10.864;2022-09-09T03:08:43;12.40;99.90
32470;DHT22;18925;48.356;10.864;2022-09-09T03:09:13;12.40;99.90
32470;DHT22;18925;48.356;10.864;2022-09-09T03:09:44;12.40;99.90
32470;DHT22;18925;48.356;10.864;2022-09-09T03:10:14;12.40;99.90
32470;DHT22;18925;48.356;10.864;2022-09-09T03:10:45;12.40;99.90
32470;DHT22;18925;48.356;10.864;2022-09-09T03:11:16;12.40;99.90
32470;DHT22;18925;48.356;10.864;2022-09-09T03:11:47;12.40;99.90
32470;DHT22;18925;48.356;10.864;2022-09-09T03:12:17;12.30;99.90
32470;DHT22;18925;48.356;10.864;2022-09-09T03:12:48;12.40;99.90
32470;DHT22;18925;48.356;10.864;2022-09-09T03:13:19;12.40;99.90
32470;DHT22;18925;48.356;10.864;2022-09-09T03:13:49;12.40;99.90
32470;DHT22;18925;48.356;10.864;2022-09-09T03:14:20;12.40;99.90
32470;DHT22;18925;48.356;10.864;2022-09-09T03:14:51;12.40;99.90
32470;DHT22;18925;48.356;10.864;2022-09-09T03:15:22;12.30;99.90
32470;DHT22;18925;48.356;10.864;2022-09-09T03:15:53;12.30;99.90
32470;DHT22;18925;48.356;10.864;2022-09-09T03:16:23;12.30;99.90
32470;DHT22;18925;48.356;10.864;2022-09-09T03:16:54;12.30;99.90
32470;DHT22;18925;48.356;10.864;2022-09-09T03:17:25;12.30;99.90
32470;DHT22;18925;48.356;10.864;2022-09-09T03:17:56;12.30;99.90
32470;DHT22;18925;48.356;10.864;2022-09-09T03:18:27;12.30;99.90
32470;DHT22;18925;48.356;10.864;2022-09-09T03:18:58;12.30;99.90
32470;DHT22;18925;48.356;10.864;2022-09-09T03:19:29;12.30;99.90
32470;DHT22;18925;48.356;10.864;2022-09-09T03:20:00;12.40;99.90
32470;DHT22;18925;48.356;10.864;2022-09-09T03:20:31;12.40;99.90
32470;DHT22;18925;48.356;10.864;2022-09-09T03:21:02;12.40;99.90
32470;DHT22;18925;48.356;10.864;2022-09-09T03:21:33;12.40;99.90
32470;DHT22;18925;48.356;10.864;2022-09-09T03:22:03;12.50;99.90
32470;DHT22;18925;48.356;10.864;2022-09-09T03:22:34;12.40;99.90
32470;DHT22;18925;48.356;10.864;2022-09-09T03:23:05;12.40;99.90
32470;DHT22;18925;48.356;10.864;2022-09-09T03:23:35;12.50;99.90
32470;DHT22;18925;48.356;10.864;2022-09-09T03:24:06;12.40;99.90
32470;DHT22;18925;48.356;10.864;2022-09-09T03:24:37;12.50;99.90
32470;DHT22;18925;48.356;10.864;2022-09-09T03:25:07;12.50;99.90
32470;DHT22;18925;48.356;10.864;2022-09-09T03:25:38;12.50;99.90
32470;DHT22;18925;48.356;10.864;2022-09-09T03:26:09;12.50;99.90
32470;DHT22;18925;48.356;10.864;2022-09-09T03:26:40;12.50;99.90
32470;DHT22;18925;48.356;10.864;2022-09-09T03:27:11;12.50;99.90
32470;DHT22;18925;48.356;10.864;2022-09-09T03:27:42;12.50;99.90
32470;DHT22;18925;48.356;10.864;2022-09-09T03:28:12;12.50;99.90
32470;DHT22;18925;48.356;10.864;2022-09-09T03:28:43;12.50;99.90
32470;DHT22;18925;48.356;10.864;2022-09-09T03:29:15;12.50;99.90
32470;DHT22;18925;48.356;10.864;2022-09-09T03:29:46;12.50;99.90
32470;DHT22;18925;48.356;10.864;2022-09-09T03:30:16;12.40;99.90
32470;DHT22;18925;48.356;10.864;2022-09-09T03:30:47;12.40;99.90
32470;DHT22;18925;48.356;10.864;2022-09-09T03:31:18;12.40;99.90
32470;DHT22;18925;48.356;10.864;2022-09-09T03:31:49;12.40;99.90
32470;DHT22;18925;48.356;10.864;2022-09-09T03:32:21;12.50;99.90
32470;DHT22;18925;48.356;10.864;2022-09-09T03:32:52;12.40;99.90
32470;DHT22;18925;48.356;10.864;2022-09-09T03:33:23;12.50;99.90
32470;DHT22;18925;48.356;10.864;2022-09-09T03:33:54;12.50;99.90
32470;DHT22;18925;48.356;10.864;2022-09-09T03:34:24;12.50;99.90
32470;DHT22;18925;48.356;10.864;2022-09-09T03:34:55;12.50;99.90
32470;DHT22;18925;48.356;10.864;2022-09-09T03:35:25;12.50;99.90
32470;DHT22;18925;48.356;10.864;2022-09-09T03:35:56;12.50;99.90
32470;DHT22;18925;48.356;10.864;2022-09-09T03:36:27;12.50;99.90
32470;DHT22;18925;48.356;10.864;2022-09-09T03:36:58;12.50;99.90
32470;DHT22;18925;48.356;10.864;2022-09-09T03:37:29;12.50;99.90
32470;DHT22;18925;48.356;10.864;2022-09-09T03:37:59;12.50;99.90
32470;DHT22;18925;48.356;10.864;2022-09-09T03:38:31;12.50;99.90
32470;DHT22;18925;48.356;10.864;2022-09-09T03:39:02;12.50;99.90
32470;DHT22;18925;48.356;10.864;2022-09-09T03:39:33;12.50;99.90
32470;DHT22;18925;48.356;10.864;2022-09-09T03:40:04;12.50;99.90
32470;DHT22;18925;48.356;10.864;2022-09-09T03:40:34;12.50;99.90
32470;DHT22;18925;48.356;10.864;2022-09-09T03:41:05;12.50;99.90
32470;DHT22;18925;48.356;10.864;2022-09-09T03:41:36;12.50;99.90
32470;DHT22;18925;48.356;10.864;2022-09-09T03:42:07;12.50;99.90
32470;DHT22;18925;48.356;10.864;2022-09-09T03:42:38;12.50;99.90
32470;DHT22;18925;48.356;10.864;2022-09-09T03:43:08;12.50;99.90
32470;DHT22;18925;48.356;10.864;2022-09-09T03:43:40;12.50;99.90
32470;DHT22;18925;48.356;10.864;2022-09-09T03:44:12;12.50;99.90
32470;DHT22;18925;48.356;10.864;2022-09-09T03:44:42;12.50;99.90
32470;DHT22;18925;48.356;10.864;2022-09-09T03:45:16;12.50;99.90
32470;DHT22;18925;48.356;10.864;2022-09-09T03:45:47;12.50;99.90
32470;DHT22;18925;48.356;10.864;2022-09-09T03:46:18;12.50;99.90
32470;DHT22;18925;48.356;10.864;2022-09-09T03:46:49;12.50;99.90
32470;DHT22;18925;48.356;10.864;2022-09-09T03:47:20;12.50;99.90
32470;DHT22;18925;48.356;10.864;2022-09-09T03:47:52;12.50;99.90
32470;DHT22;18925;48.356;10.864;2022-09-09T03:48:22;12.50;99.90
32470;DHT22;18925;48.356;10.864;2022-09-09T03:48:53;12.50;99.90
32470;DHT22;18925;48.356;10.864;2022-09-09T03:49:24;12.50;99.90
32470;DHT22;18925;48.356;10.864;2022-09-09T03:49:55;12.50;99.90
32470;DHT22;18925;48.356;10.864;2022-09-09T03:50:26;12.50;99.90
32470;DHT22;18925;48.356;10.864;2022-09-09T03:50:56;12.50;99.90
32470;DHT22;18925;48.356;10.864;2022-09-09T03:51:28;12.50;99.90
32470;DHT22;18925;48.356;10.864;2022-09-09T03:51:58;12.50;99.90
32470;DHT22;18925;48.356;10.864;2022-09-09T03:52:29;12.50;99.90
32470;DHT22;18925;48.356;10.864;2022-09-09T03:53:01;12.50;99.90
32470;DHT22;18925;48.356;10.864;2022-09-09T03:53:31;12.50;99.90
32470;DHT22;18925;48.356;10.864;2022-09-09T03:54:02;12.50;99.90
32470;DHT22;18925;48.356;10.864;2022-09-09T03:54:35;12.40;99.90
32470;DHT22;18925;48.356;10.864;2022-09-09T03:55:06;12.50;99.90
32470;DHT22;18925;48.356;10.864;2022-09-09T03:55:36;12.50;99.90
32470;DHT22;18925;48.356;10.864;2022-09-09T03:56:07;12.40;99.90
32470;DHT22;18925;48.356;10.864;2022-09-09T03:56:38;12.50;99.90
32470;DHT22;18925;48.356;10.864;2022-09-09T03:57:09;12.40;99.90
32470;DHT22;18925;48.356;10.864;2022-09-09T03:57:40;12.40;99.90
32470;DHT22;18925;48.356;10.864;2022-09-09T03:58:12;12.40;99.90
32470;DHT22;18925;48.356;10.864;2022-09-09T03:58:43;12.40;99.90
32470;DHT22;18925;48.356;10.864;2022-09-09T03:59:14;12.40;99.90
32470;DHT22;18925;48.356;10.864;2022-09-09T03:59:44;12.40;99.90
32470;DHT22;18925;48.356;10.864;2022-09-09T04:00:15;12.40;99.90
32470;DHT22;18925;48.356;10.864;2022-09-09T04:01:25;12.40;99.90
32470;DHT22;18925;48.356;10.864;2022-09-09T04:01:56;12.30;99.90
32470;DHT22;18925;48.356;10.864;2022-09-09T04:02:27;12.40;99.90
32470;DHT22;18925;48.356;10.864;2022-09-09T04:02:58;12.30;99.90
32470;DHT22;18925;48.356;10.864;2022-09-09T04:03:29;12.30;99.90
32470;DHT22;18925;48.356;10.864;2022-09-09T04:03:59;12.30;99.90
32470;DHT22;18925;48.356;10.864;2022-09-09T04:04:32;12.30;99.90
32470;DHT22;18925;48.356;10.864;2022-09-09T04:05:03;12.30;99.90
32470;DHT22;18925;48.356;10.864;2022-09-09T04:05:34;12.30;99.90
32470;DHT22;18925;48.356;10.864;2022-09-09T04:06:05;12.30;99.90
32470;DHT22;18925;48.356;10.864;2022-09-09T04:06:38;12.30;99.90
32470;DHT22;18925;48.356;10.864;2022-09-09T04:07:08;12.30;99.90
32470;DHT22;18925;48.356;10.864;2022-09-09T04:07:39;12.30;99.90
32470;DHT22;18925;48.356;10.864;2022-09-09T04:08:09;12.30;99.90
32470;DHT22;18925;48.356;10.864;2022-09-09T04:08:41;12.30;99.90